Flight Track Log - Related Links

Times and Time Zones

All times are in EST time to prevent confusion due to time zone crossing. See the N612CT flight status page for this flight to view local times or setup timezone preferences in your user account.

Time Position Orientation Groundspeed Altitude Reporting Facility
EST Latitude Longitude Course Direction KTS MPH feet Rate Location/Type
Sat 12:15:14 PM 26.1194 -81.6947 138° Southeast 95 109 2,600  Level Miami Center
Sat 12:16:14 PM 26.1097 -81.6689 113° Southeast 90 104 3,400 700 Climbing Miami Center
Sat 12:17:14 PM 26.1025 -81.6408 106° East 112 129 4,000 700 Climbing Miami Center
Sat 12:18:14 PM 26.0931 -81.6103 109° East 112 129 4,800 500 Climbing Miami Center
Sat 12:19:00 PM 26.1061 -81.4845 138° Southeast  Level Estimated
Sat 12:19:14 PM 26.0775 -81.5706 114° Southeast 142 163 5,000  Level Miami Center
Sat 12:20:14 PM 26.0664 -81.5308 107° East 142 163 5,100  Climbing Miami Center
Sat 12:21:14 PM 26.0531 -81.4861 108° East 147 169 5,000  Descending Miami Center
Sat 12:22:14 PM 26.0378 -81.4442 112° Southeast 147 169 5,100  Climbing Miami Center
Sat 12:23:14 PM 26.0247 -81.3903 105° East 153 176 5,000 -50 Descending Miami Center
Sat 12:24:14 PM 26.0136 -81.3506 107° East 148 170 5,000 50 Level Miami Center
Sat 12:25:14 PM 26.0003 -81.3064 109° East 148 170 5,100  Climbing Miami Center
Sat 12:26:14 PM 26.0078 -81.2603 80° East 143 165 5,000 -50 Descending Miami Center
Sat 12:27:14 PM 26.0197 -81.2144 74° East 143 165 5,000  Level Miami Center
Sat 12:27:59 PM 26.0250 -81.1800 80° East 157 181 5,000 -100 Level Miami Center
Sat 12:28:14 PM 26.0317 -81.1664 61° Northeast 143 165 4,900 98 Descending Miami Center
Sat 12:29:00 PM 26.0389 -81.1344 76° East 158 182 5,100 200 Climbing Miami Center
Sat 12:29:14 PM 26.0453 -81.1231 58° Northeast 143 165 5,100  Level Miami Center
Sat 12:29:55 PM 26.0525 -81.0956 74° East 147 169 5,100 -100 Level Miami Center
Sat 12:30:14 PM 26.0611 -81.0797 59° Northeast 143 165 5,000 -98 Descending Miami Center
Sat 12:30:56 PM 26.0683 -81.0475 76° East 159 183 5,000  Level Miami Center
Sat 12:31:14 PM 26.0750 -81.0339 61° Northeast 148 170 5,000 -98 Level Miami Center
Sat 12:31:57 PM 26.0822 -81.0017 76° East 156 180 4,900 -100 Descending Miami Center
Sat 12:32:14 PM 26.0867 -80.9906 66° East 154 177 4,900  Level Miami Center
Sat 12:33:04 PM 26.0964 -80.9492 75° East 154 177 4,900  Level Miami Center
Sat 12:33:14 PM 26.1006 -80.9447 44° Northeast 154 177 4,900 -343 Level Miami Center
Sat 12:34:14 PM 26.0914 -80.8981 102° East 154 177 4,500 -478 Descending Miami Center
Sat 12:35:07 PM 26.0717 -80.8558 117° Southeast 158 182 4,000 -500 Descending Miami Center
Sat 12:35:14 PM 26.0739 -80.8536 42° Northeast 149 171 4,000 -1,091 Level Miami Center
Sat 12:36:02 PM 26.0519 -80.8111 120° Southeast 181 208 3,000 -1,100 Descending Miami Center
Sat 12:36:14 PM 26.0542 -80.8044 70° East 154 177 2,900 -806 Descending Miami Center
Sat 12:37:09 PM 26.0306 -80.7597 120° Southeast 170 196 2,100 -900 Descending Miami Center
Sat 12:37:14 PM 26.0325 -80.7597 360° North 160 184 2,000 -197 Descending Miami Center
Sat 12:38:10 PM 26.0108 -80.7150 118° Southeast 151 174 1,900 -51 Descending Miami Center
Sat 12:39:11 PM 25.9950 -80.6775 115° Southeast 135 155 1,900  Level Miami Center
Sat 12:40:06 PM 25.9772 -80.6400 118° Southeast 138 159 1,900  Level Miami Center
Sat 12:41:08 PM 25.9614 -80.6003 114° Southeast 143 165 1,900 -146 Level Miami Center
Sat 12:42:09 PM 25.9436 -80.5606 116° Southeast 150 173 1,600 -197 Descending Miami Center
Sat 12:43:10 PM 25.9281 -80.5161 111° Southeast 151 174 1,500 -49 Descending Miami Center
Sat 12:44:11 PM 25.9103 -80.4717 114° Southeast 146 168 1,500  Level Miami Center
Sat 12:45:12 PM 25.9031 -80.4275 100° East 147 169 1,500 -49 Level Miami Center
Sat 12:46:13 PM 25.9083 -80.3817 83° East 148 170 1,400 -295 Descending Miami Center
Sat 12:47:14 PM 25.9075 -80.3375 91° East 154 177 900 -492 Descending Miami Center
Sat 12:49:00 PM 25.9074 -80.2782 103° East  Level Estimated
Sat 12:56:00 PM 25.9074 -80.2782 103° East  Level Estimated

Login

Don't have an account? Register now (free) for customized features, flight alerts, and more!